Time;durP1;ratioP1;P1;durP2;ratioP2;P2;SDS_P1;SDS_P2;PMS_P1;PMS_P2;Temp;Humidity;BMP_temperature;BMP_pressure;BME280_temperature;BME280_humidity;BME280_pressure;Samples;Min_cycle;Max_cycle;Signal;HPM_P1;HPM_P2
2022/12/26 00:00:35;;;;;;;7.65;6.13;;;7.70;90.10;;;;;;4986972;28;20514;-61
2022/12/26 00:03:01;;;;;;;8.90;6.10;;;7.70;90.10;;;;;;4985792;28;20045;-62
2022/12/26 00:05:26;;;;;;;7.30;5.70;;;7.70;90.20;;;;;;4988063;28;20034;-61
2022/12/26 00:07:52;;;;;;;7.93;5.90;;;7.70;90.20;;;;;;4986096;28;20027;-63
2022/12/26 00:10:17;;;;;;;30.02;6.85;;;7.70;90.20;;;;;;4987579;28;20026;-64
2022/12/26 00:12:43;;;;;;;7.78;5.45;;;7.70;90.20;;;;;;4982325;28;20058;-63
2022/12/26 00:15:09;;;;;;;100.00;7.80;;;7.60;90.10;;;;;;4986948;28;20154;-62
2022/12/26 00:17:34;;;;;;;29.88;5.93;;;7.60;90.10;;;;;;4986926;28;20141;-63
2022/12/26 00:20:00;;;;;;;71.38;6.78;;;7.60;90.00;;;;;;4987974;28;20046;-61
2022/12/26 00:22:25;;;;;;;7.65;5.30;;;7.60;89.90;;;;;;4985818;28;20387;-62
2022/12/26 00:24:51;;;;;;;5.25;4.63;;;7.50;89.60;;;;;;4985291;28;20330;-62
2022/12/26 00:27:16;;;;;;;26.13;5.78;;;7.50;89.70;;;;;;4984137;28;20042;-61
2022/12/26 00:29:42;;;;;;;37.05;6.00;;;7.50;89.80;;;;;;4985059;28;20632;-63
2022/12/26 00:32:07;;;;;;;45.53;6.13;;;7.50;89.60;;;;;;4982782;28;20050;-60
2022/12/26 00:34:33;;;;;;;10.27;5.40;;;7.40;89.30;;;;;;4984816;28;20113;-61
2022/12/26 00:36:58;;;;;;;175.68;9.30;;;7.40;89.20;;;;;;4982566;28;20038;-61
2022/12/26 00:39:24;;;;;;;10.95;7.40;;;7.30;89.10;;;;;;4981906;28;20038;-64
2022/12/26 00:41:49;;;;;;;20.45;7.80;;;7.30;89.30;;;;;;4981845;28;20116;-62
2022/12/26 00:44:15;;;;;;;12.60;6.90;;;7.20;89.40;;;;;;4984624;28;20334;-62
2022/12/26 00:46:41;;;;;;;40.78;7.00;;;7.20;89.50;;;;;;4986192;28;20370;-61
2022/12/26 00:49:06;;;;;;;27.95;7.55;;;7.20;89.40;;;;;;4986453;28;20498;-63
2022/12/26 00:51:32;;;;;;;18.55;7.35;;;7.10;89.20;;;;;;4985007;28;20121;-63
2022/12/26 00:53:57;;;;;;;10.98;6.55;;;7.10;89.30;;;;;;4983274;28;20058;-61
2022/12/26 00:56:23;;;;;;;19.63;6.80;;;7.10;89.30;;;;;;4985687;28;20042;-63
2022/12/26 00:58:48;;;;;;;6.70;5.35;;;7.00;89.40;;;;;;4985300;28;20045;-63
2022/12/26 01:01:19;;;;;;;5.78;4.95;;;7.00;89.50;;;;;;4983670;28;20030;-60
2022/12/26 01:03:46;;;;;;;5.25;4.72;;;7.00;89.50;;;;;;4985525;28;20058;-61
2022/12/26 01:06:12;;;;;;;5.55;4.65;;;7.00;89.50;;;;;;4987230;28;20088;-63
2022/12/26 01:08:38;;;;;;;4.95;4.45;;;7.00;89.70;;;;;;4987210;28;20034;-61
2022/12/26 01:11:10;;;;;;;5.25;4.50;;;7.00;89.80;;;;;;4983003;28;20034;-62
2022/12/26 01:13:36;;;;;;;5.40;4.50;;;7.00;89.90;;;;;;4986811;28;20032;-62
2022/12/26 01:16:03;;;;;;;4.78;4.18;;;6.90;89.90;;;;;;4985367;28;20133;-62
2022/12/26 01:18:29;;;;;;;5.05;4.18;;;7.00;89.90;;;;;;4985936;28;20031;-63
2022/12/26 01:21:09;;;;;;;4.47;4.03;;;7.00;90.00;;;;;;4987321;28;20084;-62
2022/12/26 01:23:35;;;;;;;4.38;3.97;;;7.00;90.00;;;;;;4986435;28;20537;-63
2022/12/26 01:26:00;;;;;;;4.40;4.00;;;7.00;90.10;;;;;;4984131;28;20246;-63
2022/12/26 01:28:26;;;;;;;4.20;3.85;;;7.00;90.00;;;;;;4982205;28;20030;-64
2022/12/26 01:30:51;;;;;;;4.35;3.95;;;7.00;90.00;;;;;;4984938;28;20129;-61
2022/12/26 01:33:17;;;;;;;4.47;4.07;;;7.00;90.10;;;;;;4982021;28;20525;-63
2022/12/26 01:35:52;;;;;;;4.30;3.90;;;7.00;90.50;;;;;;4983251;28;20073;-61
2022/12/26 01:38:19;;;;;;;4.18;3.78;;;7.00;90.60;;;;;;4982120;28;20042;-63
2022/12/26 01:40:45;;;;;;;3.70;3.40;;;7.00;90.30;;;;;;4982007;28;20085;-63
2022/12/26 01:43:13;;;;;;;4.25;3.85;;;7.00;90.40;;;;;;4981918;28;20042;-63
2022/12/26 01:45:39;;;;;;;4.63;3.90;;;7.00;90.40;;;;;;4982421;28;20034;-60
2022/12/26 01:48:32;;;;;;;4.68;3.80;;;7.00;90.40;;;;;;4981998;28;20045;-61
2022/12/26 01:51:04;;;;;;;4.20;3.80;;;7.10;90.50;;;;;;4982308;28;20026;-64
2022/12/26 01:53:36;;;;;;;4.72;3.78;;;7.10;90.40;;;;;;4981217;28;20117;-64
2022/12/26 01:56:10;;;;;;;4.30;3.90;;;7.10;90.50;;;;;;4981452;28;20445;-62
2022/12/26 01:58:42;;;;;;;3.63;3.33;;;7.10;91.00;;;;;;4983797;28;20554;-62
2022/12/26 02:01:09;;;;;;;3.70;3.40;;;7.10;90.70;;;;;;4980029;28;20058;-63
2022/12/26 02:06:25;;;;;;;4.10;3.70;;;7.20;90.90;;;;;;4982271;28;20100;-62
2022/12/26 02:08:52;;;;;;;3.95;3.58;;;7.20;91.00;;;;;;4982054;28;20574;-62
2022/12/26 02:11:23;;;;;;;3.95;3.65;;;7.30;91.00;;;;;;4980538;28;20422;-64
2022/12/26 02:13:49;;;;;;;4.20;3.80;;;7.30;91.10;;;;;;4980170;28;20034;-61
2022/12/26 02:16:17;;;;;;;4.30;3.90;;;7.30;91.00;;;;;;4981076;28;21704;-63
2022/12/26 02:18:43;;;;;;;3.60;3.30;;;7.40;91.00;;;;;;4982794;28;20454;-62
2022/12/26 02:21:36;;;;;;;3.50;3.20;;;7.50;91.00;;;;;;4981133;28;20608;-64
2022/12/26 02:24:20;;;;;;;3.80;3.40;;;7.50;91.00;;;;;;4980930;28;20048;-62
2022/12/26 02:27:09;;;;;;;3.50;3.20;;;7.50;90.90;;;;;;4977728;28;20465;-63
2022/12/26 02:30:06;;;;;;;4.07;3.65;;;7.50;90.70;;;;;;4982154;28;20097;-63
2022/12/26 02:33:04;;;;;;;3.88;3.28;;;7.50;90.60;;;;;;4979610;28;20026;-63
2022/12/26 02:35:47;;;;;;;3.90;3.55;;;7.50;90.50;;;;;;4983183;28;20026;-62
2022/12/26 02:38:36;;;;;;;4.10;3.70;;;7.50;90.50;;;;;;4978961;28;20530;-61
2022/12/26 02:41:14;;;;;;;4.03;3.63;;;7.60;90.50;;;;;;4982983;28;20045;-62
2022/12/26 02:43:58;;;;;;;4.70;3.80;;;7.60;90.50;;;;;;4983100;28;20034;-63
2022/12/26 02:47:04;;;;;;;4.97;3.80;;;7.60;90.50;;;;;;4982975;28;20388;-64
2022/12/26 03:13:09;;;;;;;4.25;3.85;;;7.70;90.70;;;;;;4979840;28;20412;-63
2022/12/26 03:18:37;;;;;;;3.92;3.40;;;7.70;90.70;;;;;;4981377;28;20066;-64
2022/12/26 03:21:04;;;;;;;3.97;3.60;;;7.70;90.70;;;;;;4983017;28;20046;-62
2022/12/26 03:23:31;;;;;;;4.10;3.70;;;7.70;90.60;;;;;;4982809;28;20058;-63
2022/12/26 03:28:46;;;;;;;4.47;4.07;;;7.70;90.90;;;;;;4978357;28;20544;-63
2022/12/26 03:31:14;;;;;;;5.00;4.18;;;7.70;90.50;;;;;;4982169;28;20454;-65
2022/12/26 03:37:16;;;;;;;4.32;3.70;;;7.70;90.50;;;;;;4981706;28;20037;-63
2022/12/26 04:46:34;;;;;;;4.75;3.90;;;7.50;90.20;;;;;;4982519;28;20039;-60
2022/12/26 04:51:50;;;;;;;4.97;4.30;;;7.40;90.30;;;;;;4983842;28;20065;-62
2022/12/26 04:54:17;;;;;;;5.68;4.30;;;7.40;90.30;;;;;;4982491;28;20077;-62
2022/12/26 04:56:42;;;;;;;5.00;4.30;;;7.40;90.30;;;;;;4983886;28;20034;-64
2022/12/26 04:59:08;;;;;;;6.97;4.97;;;7.40;90.40;;;;;;4984550;28;20391;-63
2022/12/26 05:09:54;;;;;;;13.73;8.95;;;7.40;90.50;;;;;;4985561;28;20398;-63
2022/12/26 05:12:20;;;;;;;9.93;7.85;;;7.50;90.50;;;;;;4983995;28;20114;-61
2022/12/26 05:14:46;;;;;;;11.18;7.10;;;7.50;90.60;;;;;;4985946;28;20039;-64
2022/12/26 05:31:04;;;;;;;6.70;5.20;;;7.50;90.60;;;;;;4979840;28;20118;-61
2022/12/26 05:36:16;;;;;;;10.10;7.82;;;7.50;91.00;;;;;;4983867;28;20037;-63
2022/12/26 05:38:41;;;;;;;9.93;7.65;;;7.50;90.60;;;;;;4983803;28;20073;-62
2022/12/26 05:41:08;;;;;;;7.18;6.10;;;7.60;90.60;;;;;;4984269;28;20524;-63
2022/12/26 05:43:33;;;;;;;6.70;5.68;;;7.60;90.70;;;;;;4983669;28;20531;-63
2022/12/26 05:45:59;;;;;;;8.73;5.90;;;7.60;90.80;;;;;;4985061;28;20130;-63
2022/12/26 05:48:24;;;;;;;6.93;5.35;;;7.70;90.90;;;;;;4984339;28;20085;-63
2022/12/26 05:50:50;;;;;;;6.97;5.65;;;7.70;90.90;;;;;;4981234;28;20118;-63
2022/12/26 05:53:15;;;;;;;10.55;6.97;;;7.70;91.00;;;;;;4983439;28;20100;-63
2022/12/26 05:55:42;;;;;;;7.55;5.70;;;7.70;91.00;;;;;;4982108;28;20041;-63
2022/12/26 05:58:08;;;;;;;6.65;5.53;;;7.80;91.10;;;;;;4982729;28;20046;-63
2022/12/26 06:00:33;;;;;;;7.75;5.28;;;7.80;91.10;;;;;;4983722;28;20048;-64
2022/12/26 06:02:59;;;;;;;8.02;5.88;;;7.80;91.10;;;;;;4977301;28;20057;-63
2022/12/26 06:05:25;;;;;;;7.65;5.57;;;7.90;91.10;;;;;;4984537;28;20041;-63
2022/12/26 06:07:51;;;;;;;6.90;5.50;;;7.90;91.10;;;;;;4981341;28;20042;-63
2022/12/26 06:10:17;;;;;;;7.25;5.55;;;7.90;91.10;;;;;;4977926;28;20034;-64
2022/12/26 06:12:42;;;;;;;8.15;6.18;;;7.90;91.10;;;;;;4982324;28;20180;-63
2022/12/26 06:15:09;;;;;;;8.55;6.13;;;8.00;91.10;;;;;;4980631;28;20051;-62
2022/12/26 06:17:34;;;;;;;8.40;6.25;;;8.00;91.20;;;;;;4978885;28;20038;-61
2022/12/26 06:20:00;;;;;;;9.52;6.53;;;8.00;91.20;;;;;;4981769;28;20049;-62
2022/12/26 06:22:28;;;;;;;9.10;6.88;;;7.90;91.10;;;;;;4981496;28;20045;-63
2022/12/26 06:24:53;;;;;;;10.05;6.78;;;8.00;91.20;;;;;;4979314;28;20034;-62
2022/12/26 06:27:19;;;;;;;9.45;6.85;;;8.00;91.20;;;;;;4980718;28;20037;-63
2022/12/26 06:29:45;;;;;;;9.68;6.72;;;8.00;91.20;;;;;;4978089;28;20590;-64
2022/12/26 06:32:10;;;;;;;9.52;6.95;;;8.10;91.30;;;;;;4980112;28;20038;-63
2022/12/26 06:34:36;;;;;;;10.70;7.20;;;8.10;91.30;;;;;;4992526;28;20035;-64
2022/12/26 06:37:01;;;;;;;8.80;6.93;;;8.10;91.40;;;;;;4980199;28;20042;-62
2022/12/26 06:39:27;;;;;;;8.98;6.88;;;8.10;91.40;;;;;;4980813;28;20035;-63
2022/12/26 06:41:52;;;;;;;7.53;6.25;;;8.20;91.40;;;;;;4983695;28;20536;-62
2022/12/26 06:44:18;;;;;;;9.35;6.70;;;8.20;91.40;;;;;;4980352;28;20133;-64
2022/12/26 06:46:44;;;;;;;8.88;6.45;;;8.20;91.30;;;;;;4978719;28;20061;-63
2022/12/26 06:49:10;;;;;;;9.40;6.40;;;8.30;91.20;;;;;;4977866;28;20038;-63
2022/12/26 06:51:35;;;;;;;8.57;6.50;;;8.30;91.20;;;;;;4984232;28;20106;-61
2022/12/26 06:54:01;;;;;;;9.02;6.30;;;8.30;91.20;;;;;;4981427;28;20042;-62
2022/12/26 06:56:28;;;;;;;8.50;6.60;;;8.30;91.20;;;;;;4981824;28;20145;-63
2022/12/26 06:58:58;;;;;;;11.90;6.88;;;8.40;91.20;;;;;;4982957;28;20030;-63
2022/12/26 07:01:26;;;;;;;12.50;6.90;;;8.40;91.20;;;;;;4982675;28;20023;-63
2022/12/26 07:03:53;;;;;;;8.57;7.05;;;8.40;91.10;;;;;;4982304;28;20049;-63
2022/12/26 07:06:23;;;;;;;10.20;7.03;;;8.50;91.20;;;;;;4982533;28;20081;-63
2022/12/26 07:08:49;;;;;;;9.35;7.40;;;8.50;91.20;;;;;;4982057;28;20124;-62
2022/12/26 07:11:17;;;;;;;10.02;7.85;;;8.50;91.10;;;;;;4979696;28;20038;-63
2022/12/26 07:13:43;;;;;;;9.23;6.50;;;8.60;91.20;;;;;;4982230;28;20521;-63
2022/12/26 07:16:12;;;;;;;9.35;6.78;;;8.60;91.10;;;;;;4980596;28;20158;-63
2022/12/26 07:18:37;;;;;;;11.10;6.82;;;8.60;91.10;;;;;;4982366;28;20498;-64
2022/12/26 07:21:05;;;;;;;9.57;7.05;;;8.60;91.00;;;;;;4981946;28;20046;-64
2022/12/26 07:23:30;;;;;;;9.13;7.10;;;8.60;91.10;;;;;;4978997;28;20050;-63
2022/12/26 07:25:56;;;;;;;11.23;8.15;;;8.60;91.50;;;;;;4980504;28;20088;-61
2022/12/26 07:28:21;;;;;;;10.52;7.70;;;8.70;91.00;;;;;;4982783;28;20041;-63
2022/12/26 07:30:48;;;;;;;9.68;7.32;;;8.70;91.00;;;;;;4982168;28;20120;-63
2022/12/26 07:33:14;;;;;;;12.90;7.35;;;8.70;91.00;;;;;;4981773;28;20510;-63
2022/12/26 07:35:42;;;;;;;10.13;7.07;;;8.70;90.90;;;;;;4982084;28;20037;-63
2022/12/26 07:38:08;;;;;;;11.93;8.82;;;8.70;90.80;;;;;;4983678;28;20046;-63
2022/12/26 07:40:34;;;;;;;9.68;7.30;;;8.70;90.80;;;;;;4980233;28;20042;-63
2022/12/26 07:43:00;;;;;;;9.65;7.47;;;8.80;90.80;;;;;;4980816;28;20538;-64
2022/12/26 07:45:25;;;;;;;10.70;7.35;;;8.80;90.70;;;;;;4959862;28;20592;-64
2022/12/26 07:50:27;;;;;;;9.15;6.82;;;8.80;90.70;;;;;;5772428;23;20663;-62
2022/12/26 07:52:53;;;;;;;11.80;7.60;;;8.80;90.60;;;;;;4997628;28;20050;-64
2022/12/26 07:55:19;;;;;;;10.63;7.25;;;8.80;90.50;;;;;;4999154;28;20034;-64
2022/12/26 07:57:49;;;;;;;7.50;6.07;;;8.80;90.50;;;;;;5001036;28;20456;-62
2022/12/26 08:00:15;;;;;;;10.80;6.40;;;8.80;90.50;;;;;;4987563;28;20039;-62
2022/12/26 08:02:40;;;;;;;9.07;6.80;;;8.80;90.50;;;;;;4974414;28;20460;-64
2022/12/26 08:05:06;;;;;;;10.07;6.82;;;8.70;90.60;;;;;;4975343;28;20046;-64
2022/12/26 08:07:32;;;;;;;8.65;6.85;;;8.70;90.60;;;;;;4976528;28;20092;-62
2022/12/26 08:09:57;;;;;;;10.52;8.02;;;8.70;90.70;;;;;;4980462;28;20041;-64
2022/12/26 08:12:23;;;;;;;10.23;7.97;;;8.70;91.20;;;;;;4976792;28;20113;-63
2022/12/26 08:14:49;;;;;;;9.30;6.97;;;8.70;90.90;;;;;;4971911;28;20279;-63
2022/12/26 08:17:15;;;;;;;8.43;6.65;;;8.70;90.90;;;;;;4957876;28;20049;-62
2022/12/26 08:19:40;;;;;;;9.80;7.18;;;8.70;91.00;;;;;;4970519;28;20039;-63
2022/12/26 08:22:06;;;;;;;12.13;7.18;;;8.70;91.00;;;;;;4972399;28;20044;-63
2022/12/26 08:24:32;;;;;;;9.90;6.97;;;8.70;91.00;;;;;;4964647;28;20141;-63
2022/12/26 08:26:57;;;;;;;10.60;7.70;;;8.70;91.00;;;;;;4964501;28;20090;-62
2022/12/26 08:29:23;;;;;;;9.52;7.47;;;8.80;91.10;;;;;;4965974;28;22098;-64
2022/12/26 08:31:48;;;;;;;8.85;7.18;;;8.80;91.20;;;;;;4970356;28;20034;-61
2022/12/26 08:34:14;;;;;;;20.88;12.85;;;8.80;91.20;;;;;;4976596;28;20209;-62
2022/12/26 08:36:40;;;;;;;19.58;14.13;;;8.90;91.20;;;;;;4951220;28;20047;-64
2022/12/26 08:39:05;;;;;;;17.65;12.73;;;8.90;91.30;;;;;;4947791;28;20035;-64
2022/12/26 08:41:31;;;;;;;15.95;11.63;;;9.00;91.30;;;;;;4953908;28;20030;-65
2022/12/26 08:43:56;;;;;;;16.27;11.70;;;9.00;91.30;;;;;;4951710;28;20031;-65
2022/12/26 08:46:22;;;;;;;19.73;12.85;;;9.00;91.20;;;;;;4953035;28;20154;-61
2022/12/26 08:48:49;;;;;;;14.68;10.65;;;9.10;91.20;;;;;;4956442;28;20553;-61
2022/12/26 08:51:18;;;;;;;11.68;8.25;;;9.20;91.30;;;;;;4951622;28;20049;-62
2022/12/26 08:53:45;;;;;;;12.50;8.77;;;9.20;91.30;;;;;;4952742;28;20042;-63
2022/12/26 08:56:13;;;;;;;11.40;7.97;;;9.30;91.20;;;;;;4947977;28;20043;-65
2022/12/26 08:58:40;;;;;;;11.43;8.20;;;9.30;91.20;;;;;;4957092;28;20031;-63
2022/12/26 09:01:16;;;;;;;10.50;8.15;;;9.40;91.20;;;;;;4950439;28;20213;-64
2022/12/26 09:03:42;;;;;;;9.45;7.05;;;9.40;91.20;;;;;;4956228;28;20464;-64
2022/12/26 09:06:09;;;;;;;9.18;7.20;;;9.40;91.20;;;;;;4956276;28;20154;-64
2022/12/26 09:08:36;;;;;;;10.10;7.75;;;9.50;91.20;;;;;;4950205;28;20039;-62
2022/12/26 09:11:07;;;;;;;10.95;7.50;;;9.60;91.30;;;;;;4952766;28;20167;-64
2022/12/26 09:13:34;;;;;;;10.38;7.50;;;9.60;91.30;;;;;;4947373;28;21610;-63
2022/12/26 09:16:05;;;;;;;10.95;7.40;;;9.70;91.30;;;;;;4948719;28;20043;-61
2022/12/26 09:18:31;;;;;;;10.90;8.95;;;9.70;91.30;;;;;;4953405;28;20039;-63
2022/12/26 09:21:04;;;;;;;10.52;8.57;;;9.80;91.30;;;;;;4949760;28;20054;-63
2022/12/26 09:23:30;;;;;;;10.20;7.80;;;9.80;91.40;;;;;;4955264;28;20047;-63
2022/12/26 09:26:06;;;;;;;10.23;7.97;;;9.90;91.40;;;;;;4944631;28;20039;-62
2022/12/26 09:28:32;;;;;;;11.95;9.43;;;10.00;91.50;;;;;;4954258;28;22344;-60
2022/12/26 09:31:08;;;;;;;10.73;9.00;;;10.10;91.40;;;;;;4947694;28;20039;-62
2022/12/26 09:33:37;;;;;;;18.77;12.48;;;10.10;91.80;;;;;;4953796;28;20083;-60
2022/12/26 09:36:05;;;;;;;13.27;9.48;;;10.20;91.40;;;;;;4955598;28;20044;-67
2022/12/26 09:38:31;;;;;;;10.65;7.80;;;10.30;91.40;;;;;;4950280;28;20043;-61
2022/12/26 09:41:00;;;;;;;13.82;10.88;;;10.30;91.40;;;;;;4944927;28;20126;-61
2022/12/26 09:43:52;;;;;;;14.95;11.73;;;10.40;91.50;;;;;;4946783;28;20050;-63
2022/12/26 09:46:26;;;;;;;11.05;9.20;;;10.50;91.50;;;;;;4975037;28;20129;-63
2022/12/26 09:49:10;;;;;;;12.27;9.27;;;10.60;91.40;;;;;;4980754;28;20398;-65
2022/12/26 09:51:40;;;;;;;14.02;10.95;;;10.60;91.40;;;;;;4978957;28;20045;-62
2022/12/26 09:54:10;;;;;;;14.23;11.57;;;10.70;91.30;;;;;;4976453;28;20133;-62
2022/12/26 09:56:38;;;;;;;15.82;10.88;;;10.70;91.20;;;;;;4979455;28;20157;-63
2022/12/26 09:59:13;;;;;;;11.25;8.30;;;10.80;91.20;;;;;;4981619;28;20038;-63
2022/12/26 10:01:39;;;;;;;;;;;10.80;91.10;;;;;;4976701;28;20123;-63
2022/12/26 10:04:18;;;;;;;20.08;9.18;;;10.90;91.00;;;;;;4981609;28;20324;-64
2022/12/26 10:07:16;;;;;;;15.38;8.50;;;11.00;90.90;;;;;;4980607;28;20051;-61
2022/12/26 10:10:08;;;;;;;9.25;6.88;;;11.00;90.90;;;;;;4979760;28;20031;-64
2022/12/26 10:13:03;;;;;;;11.43;6.68;;;11.00;91.00;;;;;;4975508;28;20596;-62
2022/12/26 10:16:08;;;;;;;10.75;5.85;;;11.00;91.10;;;;;;4936308;28;20038;-63
2022/12/26 10:19:05;;;;;;;9.25;6.15;;;11.10;91.10;;;;;;4975802;28;20038;-63
2022/12/26 10:21:42;;;;;;;9.68;6.15;;;11.20;91.10;;;;;;4978997;28;20026;-61
2022/12/26 10:24:15;;;;;;;9.20;6.32;;;11.20;91.00;;;;;;4976014;28;20307;-64
2022/12/26 10:26:46;;;;;;;8.35;5.82;;;11.30;90.90;;;;;;4976848;28;20031;-63
2022/12/26 10:29:20;;;;;;;10.18;5.97;;;11.30;90.90;;;;;;4979046;28;20042;-63
2022/12/26 10:31:48;;;;;;;8.07;5.43;;;11.30;90.80;;;;;;4977120;28;20042;-64
2022/12/26 10:34:26;;;;;;;8.15;5.50;;;11.40;90.80;;;;;;4975728;28;20461;-63
2022/12/26 10:37:03;;;;;;;7.43;5.47;;;11.40;90.70;;;;;;4982043;28;20521;-63
2022/12/26 10:39:44;;;;;;;8.05;5.70;;;11.40;90.70;;;;;;4984618;28;20045;-62
2022/12/26 10:42:25;;;;;;;7.72;5.43;;;11.50;90.60;;;;;;4983481;28;20092;-62
2022/12/26 10:44:51;;;;;;;8.60;5.60;;;11.50;91.00;;;;;;4984078;28;20043;-63
2022/12/26 10:47:24;;;;;;;8.05;5.70;;;11.50;90.60;;;;;;4979699;28;20045;-64
2022/12/26 10:49:50;;;;;;;8.90;5.70;;;11.50;90.50;;;;;;4983842;28;20033;-62
2022/12/26 10:52:19;;;;;;;7.82;6.07;;;11.50;90.50;;;;;;4978634;28;20039;-64
2022/12/26 10:54:52;;;;;;;7.95;5.32;;;11.50;90.40;;;;;;4980310;28;20027;-62
2022/12/26 10:57:18;;;;;;;7.45;5.30;;;11.50;90.40;;;;;;4979790;28;20034;-64
2022/12/26 10:59:47;;;;;;;9.20;5.80;;;11.50;90.40;;;;;;4966413;28;20042;-62
2022/12/26 11:02:23;;;;;;;8.38;5.93;;;11.50;90.40;;;;;;4980393;28;20030;-64
2022/12/26 11:04:59;;;;;;;8.45;5.95;;;11.50;90.40;;;;;;4984402;28;20405;-65
2022/12/26 11:07:28;;;;;;;6.93;5.40;;;11.50;90.40;;;;;;4980902;28;20034;-64
2022/12/26 11:10:00;;;;;;;8.35;6.18;;;11.50;90.40;;;;;;4980891;28;20076;-64
2022/12/26 11:12:49;;;;;;;10.93;5.70;;;11.60;90.40;;;;;;4973896;28;20691;-63
2022/12/26 11:15:27;;;;;;;7.13;5.80;;;11.50;90.40;;;;;;4978035;28;20117;-64
2022/12/26 11:17:54;;;;;;;7.72;5.20;;;11.50;90.40;;;;;;4975605;28;20039;-64
2022/12/26 11:20:22;;;;;;;8.57;5.85;;;11.60;90.40;;;;;;4979458;28;20046;-63
2022/12/26 11:22:48;;;;;;;9.00;5.85;;;11.60;90.40;;;;;;4983159;28;20125;-64
2022/12/26 11:25:33;;;;;;;8.85;5.97;;;11.60;90.40;;;;;;4982163;28;20501;-62
2022/12/26 11:28:31;;;;;;;8.63;5.53;;;11.60;90.30;;;;;;4985440;28;20138;-63
2022/12/26 11:30:59;;;;;;;7.25;5.35;;;11.60;90.30;;;;;;4981241;28;20089;-64
2022/12/26 11:33:35;;;;;;;10.00;5.38;;;11.60;90.30;;;;;;4984486;28;20106;-63
2022/12/26 11:36:21;;;;;;;9.38;5.75;;;11.60;90.70;;;;;;4984342;28;20081;-62
2022/12/26 11:38:54;;;;;;;8.90;5.57;;;11.60;90.30;;;;;;4982924;28;20580;-62
2022/12/26 11:41:32;;;;;;;11.90;5.55;;;11.60;90.30;;;;;;4984810;28;20042;-65
2022/12/26 11:44:09;;;;;;;7.93;5.53;;;11.70;90.40;;;;;;4976070;28;20421;-64
2022/12/26 11:46:49;;;;;;;7.60;5.57;;;11.60;90.30;;;;;;4979427;28;20393;-64
2022/12/26 11:49:24;;;;;;;9.45;5.97;;;11.70;90.40;;;;;;4985080;28;20148;-65
2022/12/26 11:51:50;;;;;;;;;;;11.60;90.40;;;;;;4983192;28;20081;-64
2022/12/26 11:54:34;;;;;;;12.70;6.10;;;11.70;90.40;;;;;;4982127;28;19917;-64
2022/12/26 11:57:09;;;;;;;9.23;6.50;;;11.60;90.30;;;;;;4982965;28;20036;-64
2022/12/26 11:59:35;;;;;;;10.95;6.38;;;11.60;90.40;;;;;;4981182;28;20037;-66
2022/12/26 12:02:13;;;;;;;8.45;6.28;;;11.60;90.50;;;;;;4979055;28;20042;-65
2022/12/26 12:04:38;;;;;;;8.48;6.00;;;11.60;90.60;;;;;;4981303;28;20464;-62
2022/12/26 12:07:10;;;;;;;12.13;7.63;;;11.60;90.60;;;;;;4985078;28;20042;-64
2022/12/26 12:09:50;;;;;;;10.35;6.93;;;11.60;90.70;;;;;;4983605;28;20027;-65
2022/12/26 12:12:29;;;;;;;9.88;6.38;;;11.60;90.70;;;;;;4975703;28;20404;-63
2022/12/26 12:15:16;;;;;;;9.23;6.35;;;11.60;90.80;;;;;;4982691;28;20026;-65
2022/12/26 12:18:00;;;;;;;8.15;5.82;;;11.60;90.80;;;;;;4981338;28;20559;-64
2022/12/26 12:20:38;;;;;;;7.72;5.57;;;11.60;90.80;;;;;;4976410;28;20126;-65
2022/12/26 12:23:22;;;;;;;8.98;5.90;;;11.60;91.20;;;;;;4981312;28;20062;-64
2022/12/26 12:26:05;;;;;;;7.57;5.47;;;11.70;90.80;;;;;;4979977;28;20047;-64
2022/12/26 12:28:42;;;;;;;8.48;5.93;;;11.70;90.80;;;;;;4978714;28;20058;-65
2022/12/26 12:31:23;;;;;;;8.63;6.20;;;11.70;90.80;;;;;;4979704;28;20042;-63
2022/12/26 12:34:00;;;;;;;11.05;7.60;;;11.70;90.80;;;;;;4980276;28;20027;-64
2022/12/26 12:36:49;;;;;;;10.18;6.88;;;11.80;90.80;;;;;;4984783;28;20027;-64
2022/12/26 12:39:40;;;;;;;10.85;7.18;;;11.80;90.80;;;;;;4986630;28;20150;-63
2022/12/26 12:42:24;;;;;;;10.40;6.78;;;11.80;90.70;;;;;;4973319;28;20062;-62
2022/12/26 12:45:29;;;;;;;8.75;6.18;;;11.80;90.70;;;;;;4984811;28;20118;-64
2022/12/26 12:48:21;;;;;;;11.60;6.63;;;11.70;90.70;;;;;;4982155;28;20050;-64
2022/12/26 12:51:09;;;;;;;8.63;6.07;;;11.80;90.70;;;;;;4982912;28;20288;-63
2022/12/26 12:54:05;;;;;;;8.68;5.70;;;11.80;90.80;;;;;;4974946;28;20113;-65
2022/12/26 12:56:58;;;;;;;8.25;5.78;;;11.70;90.80;;;;;;4984805;28;20019;-64
2022/12/26 12:59:46;;;;;;;6.10;4.88;;;11.70;90.80;;;;;;4986124;28;20125;-62
2022/12/26 13:02:20;;;;;;;7.38;4.80;;;11.70;90.80;;;;;;4981770;28;20059;-64
2022/12/26 13:04:53;;;;;;;6.37;4.93;;;11.70;90.80;;;;;;4980687;28;20038;-65
2022/12/26 13:07:30;;;;;;;6.45;4.78;;;11.70;90.80;;;;;;4983711;28;20576;-62
2022/12/26 13:10:00;;;;;;;7.95;4.95;;;11.70;90.80;;;;;;4984974;28;20398;-64
2022/12/26 13:12:31;;;;;;;7.35;5.13;;;11.70;90.80;;;;;;4979427;28;20050;-62
2022/12/26 13:15:17;;;;;;;6.38;4.47;;;11.70;90.80;;;;;;4981414;28;20137;-63
2022/12/26 13:18:01;;;;;;;4.68;4.20;;;11.70;90.90;;;;;;4979903;28;20403;-64
2022/12/26 13:20:33;;;;;;;4.60;3.80;;;11.70;90.80;;;;;;4979184;28;20034;-65
2022/12/26 13:26:24;;;;;;;5.45;3.40;;;11.70;90.80;;;;;;4980692;28;20563;-63
2022/12/26 13:28:57;;;;;;;4.78;3.75;;;11.70;90.80;;;;;;4974817;28;20085;-64
2022/12/26 13:31:23;;;;;;;6.00;4.25;;;11.70;90.70;;;;;;4983480;28;20154;-62
2022/12/26 13:33:49;;;;;;;3.35;3.03;;;11.60;90.70;;;;;;4985158;28;20043;-62
2022/12/26 13:36:54;;;;;;;3.78;2.90;;;11.70;90.70;;;;;;4979323;28;20038;-62
2022/12/26 13:39:22;;;;;;;2.88;2.60;;;11.60;90.60;;;;;;4884280;29;20048;-63
2022/12/26 13:44:52;;;;;;;2.25;2.05;;;11.60;90.60;;;;;;4950678;28;20045;-64
2022/12/26 13:47:37;;;;;;;1.83;1.73;;;11.70;90.50;;;;;;4967370;28;20038;-64
2022/12/26 13:50:40;;;;;;;2.03;1.58;;;11.60;90.30;;;;;;4974943;28;20129;-65
2022/12/26 13:53:38;;;;;;;2.40;2.03;;;11.60;90.20;;;;;;4978921;28;20047;-63
2022/12/26 13:56:13;;;;;;;1.60;1.50;;;11.50;90.00;;;;;;4968632;28;20091;-65
2022/12/26 13:58:45;;;;;;;2.80;1.30;;;11.50;90.10;;;;;;4979732;28;20037;-63
2022/12/26 14:01:29;;;;;;;3.65;1.13;;;11.50;90.10;;;;;;4973670;28;20074;-65
2022/12/26 14:04:36;;;;;;;1.20;1.10;;;11.50;90.00;;;;;;4981677;28;20034;-65
2022/12/26 14:07:23;;;;;;;2.72;2.35;;;11.40;90.00;;;;;;4972161;28;20046;-64
2022/12/26 14:10:05;;;;;;;1.73;1.13;;;11.40;90.10;;;;;;4973120;28;20085;-64
2022/12/26 14:12:34;;;;;;;2.08;1.10;;;11.40;90.10;;;;;;4978310;28;20037;-65
2022/12/26 14:15:23;;;;;;;3.35;2.00;;;11.30;90.10;;;;;;4976906;28;20061;-65
2022/12/26 14:18:23;;;;;;;2.88;2.15;;;11.30;90.10;;;;;;4972250;28;20066;-65
2022/12/26 14:21:11;;;;;;;3.72;2.80;;;11.30;90.20;;;;;;4971079;28;20565;-65
2022/12/26 14:23:55;;;;;;;1.85;1.60;;;11.30;90.30;;;;;;4977322;28;20046;-64
2022/12/26 14:26:51;;;;;;;2.60;2.10;;;11.20;90.30;;;;;;4971909;28;20039;-66
2022/12/26 14:29:29;;;;;;;4.22;3.38;;;11.20;90.40;;;;;;4965160;28;20126;-65
2022/12/26 14:32:19;;;;;;;3.88;2.72;;;11.20;90.40;;;;;;4973390;28;20042;-64
2022/12/26 14:34:59;;;;;;;3.97;3.08;;;11.20;90.60;;;;;;4975745;28;20076;-63
2022/12/26 14:37:41;;;;;;;4.35;3.25;;;11.20;90.70;;;;;;4974242;28;20038;-65
2022/12/26 14:40:34;;;;;;;5.20;3.22;;;11.20;90.80;;;;;;4964960;28;20125;-64
2022/12/26 14:43:10;;;;;;;5.30;3.85;;;11.20;90.80;;;;;;4978324;28;20119;-65
2022/12/26 14:45:35;;;;;;;3.47;2.55;;;11.10;90.70;;;;;;4974990;28;20042;-63
2022/12/26 14:48:21;;;;;;;2.40;2.20;;;11.10;90.70;;;;;;4972331;28;20062;-62
2022/12/26 14:50:53;;;;;;;2.95;2.10;;;11.10;90.70;;;;;;4965181;28;20093;-63
2022/12/26 14:53:19;;;;;;;2.33;2.10;;;11.10;90.60;;;;;;4976568;28;20114;-63
2022/12/26 14:56:09;;;;;;;1.63;1.52;;;11.00;90.60;;;;;;4983159;28;20605;-63
2022/12/26 14:58:43;;;;;;;1.83;1.50;;;11.10;90.50;;;;;;4982118;28;20038;-63
2022/12/26 15:01:11;;;;;;;1.35;1.25;;;11.10;90.50;;;;;;4980474;28;20070;-63
2022/12/26 15:03:46;;;;;;;2.70;1.20;;;11.00;90.40;;;;;;4983017;28;20082;-64
2022/12/26 15:06:17;;;;;;;2.20;1.60;;;11.00;90.40;;;;;;4979467;28;20268;-63
2022/12/26 15:09:20;;;;;;;1.83;1.67;;;11.00;90.40;;;;;;4982067;28;20434;-62
2022/12/26 15:12:24;;;;;;;1.70;1.60;;;11.00;90.30;;;;;;4978919;28;20042;-62
2022/12/26 15:15:24;;;;;;;1.63;1.52;;;11.00;90.30;;;;;;4939287;28;20031;-63
2022/12/26 15:18:14;;;;;;;1.05;1.00;;;11.00;90.30;;;;;;4972435;28;21588;-61
2022/12/26 15:21:01;;;;;;;2.13;1.60;;;11.00;90.30;;;;;;4974734;28;20069;-62
2022/12/26 15:23:57;;;;;;;1.90;1.50;;;11.00;90.30;;;;;;4973307;28;20045;-63
2022/12/26 15:26:31;;;;;;;1.58;1.02;;;11.00;90.40;;;;;;4972650;28;20031;-63
2022/12/26 15:29:19;;;;;;;1.17;1.00;;;11.00;90.30;;;;;;4968050;28;20050;-61
2022/12/26 15:32:06;;;;;;;1.40;1.30;;;11.00;90.20;;;;;;4972812;28;20104;-63
2022/12/26 15:34:32;;;;;;;1.33;1.23;;;11.00;90.20;;;;;;4964346;28;20046;-65
2022/12/26 15:37:16;;;;;;;1.88;1.77;;;11.00;90.50;;;;;;4971179;28;20042;-61
2022/12/26 15:39:59;;;;;;;1.70;1.60;;;11.00;90.20;;;;;;4974937;28;20034;-62